Time;durP1;ratioP1;P1;durP2;ratioP2;P2;SDS_P1;SDS_P2;PMS_P1;PMS_P2;Temp;Humidity;BMP_temperature;BMP_pressure;BME280_temperature;BME280_humidity;BME280_pressure;Samples;Min_cycle;Max_cycle;Signal;HPM_P1;HPM_P2
2023/04/21 00:01:55;;;;;;;14.07;7.87;;;8.30;99.90;;;8.41;nan;100335.91;5002652;28;20631;-66
2023/04/21 00:04:22;;;;;;;11.20;6.50;;;8.30;99.90;;;8.39;nan;100337.78;4992293;28;21099;-66
2023/04/21 00:06:52;;;;;;;16.20;9.27;;;8.30;99.90;;;8.37;nan;100329.22;4997236;28;20638;-66
2023/04/21 00:09:19;;;;;;;12.63;7.83;;;8.30;99.90;;;8.36;nan;100324.97;5001791;28;20654;-66
2023/04/21 00:11:46;;;;;;;13.17;8.13;;;8.30;99.90;;;8.34;nan;100329.44;5009353;28;21033;-68
2023/04/21 00:14:13;;;;;;;17.87;9.70;;;8.30;99.90;;;8.30;nan;100328.84;4998567;28;20644;-67
2023/04/21 00:16:40;;;;;;;13.50;9.03;;;8.30;99.90;;;8.29;nan;100328.91;4995399;28;20623;-66
2023/04/21 00:19:07;;;;;;;19.37;11.07;;;8.20;99.90;;;8.30;nan;100328.84;5003382;28;20659;-64
2023/04/21 00:21:35;;;;;;;18.47;10.63;;;8.30;99.90;;;8.30;nan;100330.59;5003802;28;20657;-65
2023/04/21 00:24:02;;;;;;;19.23;10.73;;;8.30;99.90;;;8.28;nan;100324.66;5001432;28;20646;-66
2023/04/21 00:26:29;;;;;;;17.97;10.37;;;8.30;99.90;;;8.25;nan;100325.69;5002521;28;20642;-66
2023/04/21 00:28:56;;;;;;;8.90;6.23;;;8.20;99.90;;;8.24;nan;100326.59;4998141;28;20661;-68
2023/04/21 00:31:23;;;;;;;9.80;6.70;;;8.20;99.90;;;8.24;nan;100328.38;5008840;28;21075;-66
2023/04/21 00:33:50;;;;;;;11.90;7.40;;;8.20;99.90;;;8.26;nan;100321.34;5010055;28;20617;-66
2023/04/21 00:36:17;;;;;;;11.57;6.90;;;8.20;99.90;;;8.23;nan;100316.31;5001976;28;20995;-66
2023/04/21 00:38:43;;;;;;;8.27;5.70;;;8.20;99.90;;;8.23;nan;100324.94;4997431;28;20661;-66
2023/04/21 00:41:10;;;;;;;7.73;5.50;;;8.20;99.90;;;8.22;nan;100312.88;4996496;28;20645;-65
2023/04/21 00:44:04;;;;;;;6.80;5.30;;;8.20;99.90;;;8.16;nan;100310.69;5008021;28;21013;-66
2023/04/21 00:46:32;;;;;;;7.10;5.13;;;8.10;99.90;;;8.14;nan;100312.56;5001131;28;20641;-66
2023/04/21 00:49:03;;;;;;;8.27;5.50;;;8.10;99.90;;;8.10;nan;100318.88;5001283;28;20671;-66
2023/04/21 00:51:32;;;;;;;5.47;4.90;;;8.10;99.90;;;8.10;nan;100311.09;5013649;28;20728;-66
2023/04/21 00:54:03;;;;;;;6.63;4.87;;;8.10;99.90;;;8.09;nan;100314.63;4997822;28;20631;-67
2023/04/21 00:56:33;;;;;;;6.73;5.10;;;8.10;99.90;;;8.04;nan;100311.50;5007761;28;21245;-66
2023/04/21 00:59:01;;;;;;;7.83;5.53;;;8.10;99.90;;;8.02;nan;100307.34;5001415;28;20685;-67
2023/04/21 01:01:29;;;;;;;8.67;5.93;;;8.00;99.90;;;7.99;nan;100312.72;5006965;28;20675;-65
2023/04/21 01:03:58;;;;;;;6.60;4.70;;;8.00;99.90;;;7.96;nan;100312.94;5002257;28;20634;-67
2023/04/21 01:06:33;;;;;;;8.30;5.43;;;7.90;99.90;;;7.93;nan;100302.75;5007137;28;20629;-66
2023/04/21 01:09:03;;;;;;;4.37;3.93;;;7.90;99.90;;;7.92;nan;100301.94;5009981;28;21437;-67
2023/04/21 01:11:31;;;;;;;10.00;6.97;;;7.90;99.90;;;7.88;nan;100305.63;4995626;28;20661;-67
2023/04/21 01:13:58;;;;;;;8.83;6.23;;;7.90;99.90;;;7.89;nan;100309.09;5012265;28;20621;-66
2023/04/21 01:16:25;;;;;;;7.33;5.40;;;7.90;99.90;;;7.88;nan;100310.84;5011682;28;21100;-64
2023/04/21 01:18:52;;;;;;;4.97;4.50;;;7.90;99.90;;;7.90;nan;100315.94;5012027;28;20687;-65
2023/04/21 01:21:20;;;;;;;10.30;6.83;;;7.90;99.90;;;7.87;nan;100313.53;5001356;28;20630;-66
2023/04/21 01:23:47;;;;;;;9.40;6.43;;;7.90;99.90;;;7.84;nan;100309.38;5008750;28;20621;-64
2023/04/21 01:26:20;;;;;;;7.83;6.20;;;7.90;99.90;;;7.80;nan;100311.34;5012963;28;20621;-66
2023/04/21 01:28:48;;;;;;;10.10;6.90;;;7.80;99.90;;;7.75;nan;100310.00;5012995;28;21047;-68
2023/04/21 01:31:16;;;;;;;6.33;5.40;;;7.80;99.90;;;7.73;nan;100309.28;5013978;28;20664;-66
2023/04/21 01:33:43;;;;;;;8.10;5.97;;;7.80;99.90;;;7.68;nan;100308.72;5013317;28;20634;-66
2023/04/21 01:36:11;;;;;;;7.80;5.60;;;7.70;99.90;;;7.66;nan;100303.66;5015047;28;21056;-66
2023/04/21 01:38:40;;;;;;;5.47;4.97;;;7.70;99.90;;;7.63;nan;100310.78;5013649;28;20641;-66
2023/04/21 01:41:09;;;;;;;7.37;5.53;;;7.70;99.90;;;7.61;nan;100313.47;5014117;28;20752;-66
2023/04/21 01:43:37;;;;;;;9.83;6.47;;;7.70;99.90;;;7.60;nan;100311.81;5011534;28;20633;-66
2023/04/21 01:46:05;;;;;;;8.70;6.73;;;7.60;99.90;;;7.60;nan;100306.59;4998538;28;20642;-67
2023/04/21 01:48:32;;;;;;;12.30;8.18;;;7.60;99.90;;;7.60;nan;100301.41;5008985;28;21264;-67
2023/04/21 01:50:59;;;;;;;8.47;6.50;;;7.60;99.90;;;7.65;nan;100306.31;5006689;28;20227;-67
2023/04/21 01:53:26;;;;;;;8.90;5.67;;;7.70;99.90;;;7.63;nan;100303.84;5013251;28;20637;-67
2023/04/21 01:55:53;;;;;;;7.93;6.07;;;7.70;99.90;;;7.62;nan;100309.94;5006855;28;20646;-66
2023/04/21 01:58:20;;;;;;;6.70;5.40;;;7.70;99.90;;;7.61;nan;100315.25;5002555;28;20738;-66
2023/04/21 02:00:47;;;;;;;10.97;7.67;;;7.60;99.90;;;7.62;nan;100309.94;4999152;28;21787;-67
2023/04/21 02:03:14;;;;;;;11.43;7.23;;;7.60;99.90;;;7.63;nan;100313.38;4998402;28;20633;-65
2023/04/21 02:05:42;;;;;;;8.80;6.33;;;7.70;99.90;;;7.59;nan;100314.50;4999310;28;21215;-66
2023/04/21 02:08:09;;;;;;;8.70;6.53;;;7.60;99.90;;;7.58;nan;100311.06;5015549;22;20688;-66
2023/04/21 02:10:36;;;;;;;6.90;5.83;;;7.60;99.90;;;7.59;nan;100314.50;5032658;28;20656;-66
2023/04/21 02:13:03;;;;;;;10.33;7.30;;;7.60;99.90;;;7.56;nan;100315.53;5034361;28;20694;-67
2023/04/21 02:15:30;;;;;;;8.77;6.47;;;7.60;99.90;;;7.53;nan;100315.75;5032998;28;20632;-66
2023/04/21 02:17:57;;;;;;;10.20;6.57;;;7.50;99.90;;;7.51;nan;100306.38;5031094;28;21172;-67
2023/04/21 02:20:24;;;;;;;6.93;5.93;;;7.50;99.90;;;7.48;nan;100312.59;5018040;28;20649;-66
2023/04/21 02:22:51;;;;;;;8.53;5.60;;;7.50;99.90;;;7.48;nan;100311.75;5014795;28;20625;-67
2023/04/21 02:25:18;;;;;;;7.87;6.10;;;7.50;99.90;;;7.46;nan;100309.28;5016215;28;20645;-66
2023/04/21 02:27:45;;;;;;;8.30;6.00;;;7.50;99.90;;;7.48;nan;100309.16;5013999;28;20632;-66
2023/04/21 02:30:12;;;;;;;5.70;4.70;;;7.50;99.90;;;7.47;nan;100313.56;5024743;28;20641;-69
2023/04/21 02:32:40;;;;;;;10.20;6.67;;;7.50;99.90;;;7.47;nan;100310.13;5013199;28;20637;-66
2023/04/21 02:35:07;;;;;;;9.83;7.20;;;7.50;99.90;;;7.42;nan;100313.00;5016418;28;20639;-66
2023/04/21 02:37:34;;;;;;;14.07;9.20;;;7.50;99.90;;;7.44;nan;100315.50;5012128;28;20630;-66
2023/04/21 02:40:02;;;;;;;7.80;6.30;;;7.50;99.90;;;7.46;nan;100314.47;5010610;28;21048;-66
2023/04/21 02:42:29;;;;;;;14.30;8.47;;;7.50;99.90;;;7.46;nan;100322.25;5014558;28;20640;-67
2023/04/21 02:44:56;;;;;;;6.50;5.33;;;7.50;99.90;;;7.41;nan;100326.09;5013699;28;20645;-67
2023/04/21 02:47:23;;;;;;;7.47;5.97;;;7.40;99.90;;;7.39;nan;100326.16;5031815;28;20639;-66
2023/04/21 02:49:50;;;;;;;14.60;9.40;;;7.40;99.90;;;7.35;nan;100327.28;5022746;28;20726;-66
2023/04/21 02:52:16;;;;;;;20.83;13.37;;;7.40;99.90;;;7.31;nan;100325.81;5012794;28;20679;-65
2023/04/21 02:54:43;;;;;;;14.93;9.53;;;7.30;99.90;;;7.30;nan;100325.94;5011996;28;20621;-66
2023/04/21 02:57:10;;;;;;;18.27;11.30;;;7.30;99.90;;;7.29;nan;100326.84;5024106;28;21410;-66
2023/04/21 02:59:37;;;;;;;15.53;9.50;;;7.30;99.90;;;7.23;nan;100327.22;5012509;28;20677;-66
2023/04/21 03:02:04;;;;;;;16.57;10.00;;;7.20;99.90;;;7.19;nan;100326.59;5012617;28;20640;-66
2023/04/21 03:04:32;;;;;;;16.17;9.17;;;7.20;99.90;;;7.19;nan;100338.72;5012159;28;20640;-69
2023/04/21 03:06:59;;;;;;;11.40;6.97;;;7.20;99.90;;;7.20;nan;100332.63;5025353;28;20667;-66
2023/04/21 03:09:26;;;;;;;14.67;8.50;;;7.20;99.90;;;7.18;nan;100334.47;5012719;28;20665;-65
2023/04/21 03:11:53;;;;;;;7.80;6.67;;;7.20;99.90;;;7.17;nan;100336.25;5021319;28;21262;-68
2023/04/21 03:14:20;;;;;;;9.93;7.20;;;7.20;99.90;;;7.19;nan;100333.53;5011303;28;21196;-66
2023/04/21 03:16:47;;;;;;;12.17;7.53;;;7.20;99.90;;;7.21;nan;100334.28;5014207;28;20622;-65
2023/04/21 03:19:14;;;;;;;11.40;7.70;;;7.20;99.90;;;7.22;nan;100323.81;5011403;28;20664;-66
2023/04/21 03:21:41;;;;;;;9.17;6.50;;;7.30;99.90;;;7.22;nan;100317.81;5011959;28;20645;-67
2023/04/21 03:24:08;;;;;;;10.20;7.33;;;7.30;99.90;;;7.23;nan;100311.66;5011404;28;20621;-66
2023/04/21 03:26:35;;;;;;;10.60;7.30;;;7.30;99.90;;;7.26;nan;100317.47;5011418;28;20633;-66
2023/04/21 03:29:02;;;;;;;8.77;6.40;;;7.30;99.90;;;7.29;nan;100332.88;5011565;28;20661;-67
2023/04/21 03:31:30;;;;;;;17.13;10.23;;;7.30;99.90;;;7.30;nan;100326.75;5012033;28;20661;-66
2023/04/21 03:33:57;;;;;;;15.60;10.20;;;7.30;99.90;;;7.27;nan;100318.31;5013078;28;20656;-67
2023/04/21 03:36:24;;;;;;;16.53;9.80;;;7.30;99.90;;;7.19;nan;100318.81;5010292;28;20645;-67
2023/04/21 03:38:51;;;;;;;17.00;10.37;;;7.20;99.90;;;7.12;nan;100314.09;5011933;28;20686;-66
2023/04/21 03:41:18;;;;;;;11.90;6.87;;;7.20;99.90;;;7.06;nan;100310.13;5010299;28;20660;-67
2023/04/21 03:43:45;;;;;;;9.83;6.70;;;7.10;99.90;;;6.96;nan;100309.84;5012535;28;20621;-66
2023/04/21 03:46:20;;;;;;;10.13;7.17;;;7.00;99.90;;;7.05;nan;100318.81;5010605;28;20629;-67
2023/04/21 03:48:47;;;;;;;9.57;5.50;;;7.00;99.90;;;7.07;nan;100316.97;5012637;28;20644;-66
2023/04/21 03:51:14;;;;;;;5.93;4.60;;;7.10;99.90;;;7.05;nan;100316.25;5012522;28;20730;-68
2023/04/21 03:53:41;;;;;;;12.80;8.20;;;7.10;99.90;;;7.03;nan;100310.31;5014316;28;20633;-66
2023/04/21 03:56:08;;;;;;;15.47;10.07;;;7.10;99.90;;;7.04;nan;100302.47;5025273;28;21189;-67
2023/04/21 03:58:36;;;;;;;16.08;10.00;;;7.00;99.90;;;7.01;nan;100299.19;5031638;28;21014;-66
2023/04/21 04:01:06;;;;;;;10.82;7.22;;;7.00;99.90;;;7.02;nan;100303.47;5022932;28;20215;-67
2023/04/21 04:03:33;;;;;;;9.40;6.50;;;7.00;99.90;;;7.01;nan;100305.22;5017806;28;20206;-67
2023/04/21 04:06:02;;;;;;;8.35;6.05;;;7.10;99.90;;;7.04;nan;100314.59;5011097;28;20664;-68
2023/04/21 04:08:30;;;;;;;15.17;8.57;;;7.00;99.90;;;7.02;nan;100316.44;5017720;28;20242;-66
2023/04/21 04:10:57;;;;;;;6.80;6.10;;;7.10;99.90;;;7.03;nan;100310.31;5019394;28;20668;-67
2023/04/21 04:13:25;;;;;;;14.60;9.10;;;7.00;99.90;;;7.01;nan;100309.56;5011196;28;20640;-66
2023/04/21 04:15:52;;;;;;;14.97;9.00;;;7.00;99.90;;;6.99;nan;100312.28;5022443;28;20647;-66
2023/04/21 04:18:20;;;;;;;13.10;7.53;;;7.00;99.90;;;7.00;nan;100313.13;5021323;28;20712;-66
2023/04/21 04:20:47;;;;;;;11.38;7.53;;;7.00;99.90;;;6.99;nan;100311.44;5032103;28;20205;-68
2023/04/21 04:23:14;;;;;;;18.05;11.10;;;7.00;99.90;;;6.99;nan;100311.44;5022159;28;20662;-66
2023/04/21 04:25:41;;;;;;;12.50;8.47;;;7.00;99.90;;;6.98;nan;100307.19;5011410;28;20625;-66
2023/04/21 04:28:08;;;;;;;18.13;10.38;;;7.00;99.90;;;7.00;nan;100300.97;5009403;28;21113;-66
2023/04/21 04:30:35;;;;;;;9.95;7.38;;;7.00;99.90;;;7.03;nan;100297.34;5026280;28;20588;-67
2023/04/21 04:33:02;;;;;;;14.97;9.40;;;7.00;99.90;;;7.08;nan;100303.09;5030355;28;20225;-67
2023/04/21 04:35:29;;;;;;;12.65;7.85;;;7.10;99.90;;;7.11;nan;100297.72;5028513;28;20662;-67
2023/04/21 04:37:57;;;;;;;14.52;9.02;;;7.10;99.90;;;7.11;nan;100297.72;5009861;28;20730;-67
2023/04/21 04:40:24;;;;;;;7.97;6.03;;;7.10;99.90;;;7.14;nan;100300.09;5011035;28;20411;-65
2023/04/21 04:42:51;;;;;;;18.80;10.60;;;7.20;99.90;;;7.18;nan;100306.75;5009750;28;20210;-68
2023/04/21 04:45:20;;;;;;;7.40;6.47;;;7.20;99.90;;;7.19;nan;100316.22;5002745;28;21260;-66
2023/04/21 04:47:48;;;;;;;17.90;9.93;;;7.20;99.90;;;7.20;nan;100320.47;5002141;28;21021;-67
2023/04/21 04:50:15;;;;;;;15.27;8.95;;;7.20;99.90;;;7.18;nan;100319.72;5009117;28;21275;-68
2023/04/21 04:52:45;;;;;;;14.70;8.60;;;7.20;99.90;;;7.18;nan;100309.34;5010192;28;20644;-66
2023/04/21 04:55:13;;;;;;;18.87;10.63;;;7.20;99.90;;;7.17;nan;100306.88;5010924;28;20634;-66
2023/04/21 04:57:40;;;;;;;10.13;6.63;;;7.20;99.90;;;7.18;nan;100301.56;4990002;28;20645;-68
2023/04/21 05:00:13;;;;;;;22.10;13.50;;;7.20;99.90;;;7.14;nan;100310.47;5007596;28;20640;-67
2023/04/21 05:02:40;;;;;;;19.60;11.75;;;7.20;99.90;;;7.12;nan;100317.53;5023789;28;21230;-68
2023/04/21 05:05:07;;;;;;;17.30;9.93;;;7.20;99.90;;;7.10;nan;100321.97;5026204;28;20210;-66
2023/04/21 05:07:34;;;;;;;7.97;6.00;;;7.10;99.90;;;7.12;nan;100335.69;5008839;28;20218;-66
2023/04/21 05:10:03;;;;;;;20.42;13.02;;;7.10;99.90;;;7.07;nan;100332.53;5003060;28;21260;-66
2023/04/21 05:12:33;;;;;;;16.83;9.88;;;7.10;99.90;;;7.05;nan;100334.41;5005702;28;20234;-67
2023/04/21 05:15:00;;;;;;;13.30;7.07;;;7.10;99.90;;;7.07;nan;100340.31;5005303;28;20203;-68
2023/04/21 05:17:29;;;;;;;21.93;12.70;;;7.10;99.90;;;7.07;nan;100329.94;5005205;28;20257;-67
2023/04/21 05:19:56;;;;;;;14.50;8.60;;;7.10;99.90;;;7.07;nan;100326.53;5007508;28;20669;-68
2023/04/21 05:22:23;;;;;;;12.17;7.40;;;7.10;99.90;;;7.12;nan;100332.25;5009843;28;20625;-66
2023/04/21 05:24:51;;;;;;;6.67;5.30;;;7.10;99.90;;;7.12;nan;100330.50;5008753;28;20633;-67
2023/04/21 05:27:18;;;;;;;8.82;6.07;;;7.10;99.90;;;7.12;nan;100338.28;5009415;28;21213;-67
2023/04/21 05:29:45;;;;;;;5.30;4.17;;;7.10;99.90;;;7.16;nan;100341.50;5009493;28;20233;-67
2023/04/21 05:32:13;;;;;;;5.37;4.83;;;7.20;99.90;;;7.18;nan;100343.09;5010384;28;20661;-67
2023/04/21 05:34:40;;;;;;;10.40;6.87;;;7.20;99.90;;;7.23;nan;100338.44;5009555;28;20691;-67
2023/04/21 05:37:10;;;;;;;15.23;8.68;;;7.30;99.90;;;7.30;nan;100334.56;5008146;28;20625;-66
2023/04/21 05:39:37;;;;;;;12.95;8.30;;;7.30;99.90;;;7.34;nan;100328.25;5007955;28;20591;-68
2023/04/21 05:42:04;;;;;;;11.30;7.77;;;7.30;99.90;;;7.42;nan;100328.56;5010014;28;20202;-66
2023/04/21 05:44:31;;;;;;;9.27;6.30;;;7.40;99.90;;;7.43;nan;100330.22;5009984;28;20671;-68
2023/04/21 05:46:58;;;;;;;18.90;11.63;;;7.50;99.90;;;7.44;nan;100326.72;5010399;28;20629;-66
2023/04/21 05:49:25;;;;;;;17.90;10.10;;;7.50;99.90;;;7.43;nan;100330.22;5010439;28;20669;-66
2023/04/21 05:51:51;;;;;;;12.25;7.65;;;7.50;99.90;;;7.48;nan;100332.53;5005501;28;21266;-66
2023/04/21 05:54:18;;;;;;;15.47;9.23;;;7.50;99.90;;;7.49;nan;100334.22;5008055;28;20207;-66
2023/04/21 05:56:47;;;;;;;20.90;11.60;;;7.50;99.90;;;7.52;nan;100339.19;5013890;28;21194;-67
2023/04/21 05:59:14;;;;;;;12.80;7.50;;;7.50;99.90;;;7.60;nan;100348.16;5009778;28;20653;-67
2023/04/21 06:01:42;;;;;;;11.53;7.00;;;7.60;99.90;;;7.63;nan;100347.97;5013231;28;20637;-67
2023/04/21 06:04:09;;;;;;;15.47;8.37;;;7.60;99.90;;;7.69;nan;100351.91;5023724;28;20645;-68
2023/04/21 06:06:36;;;;;;;17.60;8.90;;;7.70;99.90;;;7.70;nan;100348.41;5010232;28;21269;-67
2023/04/21 06:09:04;;;;;;;9.57;7.23;;;7.70;99.90;;;7.69;nan;100347.56;5012519;28;20665;-67
2023/04/21 06:11:32;;;;;;;3.90;3.27;;;7.70;99.90;;;7.74;nan;100349.88;5026819;28;20656;-66
2023/04/21 06:14:00;;;;;;;4.57;4.17;;;7.70;99.90;;;7.75;nan;100352.38;4997557;28;21212;-66
2023/04/21 06:16:28;;;;;;;13.17;7.97;;;7.80;99.90;;;7.80;nan;100350.31;5014751;28;20633;-67
2023/04/21 06:18:57;;;;;;;17.90;9.93;;;7.80;99.90;;;7.87;nan;100349.91;5013058;28;20728;-66
2023/04/21 06:21:24;;;;;;;9.87;7.30;;;7.90;99.90;;;7.93;nan;100358.13;5003932;28;21185;-66
2023/04/21 06:23:51;;;;;;;11.27;7.27;;;7.90;99.90;;;7.90;nan;100358.31;5008231;28;20636;-65
2023/04/21 06:26:18;;;;;;;15.47;8.63;;;7.90;99.90;;;7.90;nan;100370.50;5009829;28;20643;-66
2023/04/21 06:28:45;;;;;;;16.63;8.67;;;7.90;99.90;;;7.90;nan;100371.31;5009314;28;21015;-65
2023/04/21 06:31:15;;;;;;;7.23;5.07;;;7.90;99.90;;;7.96;nan;100370.94;5019709;28;21189;-65
2023/04/21 06:33:42;;;;;;;6.60;5.17;;;8.00;99.90;;;8.03;nan;100371.38;5010109;28;20634;-67
2023/04/21 06:36:09;;;;;;;11.60;7.07;;;8.00;99.90;;;8.14;nan;100376.69;5019133;28;20626;-66
2023/04/21 06:38:38;;;;;;;17.80;9.40;;;8.10;99.90;;;8.22;nan;100374.44;5011992;28;20663;-68
2023/04/21 06:41:05;;;;;;;7.67;5.47;;;8.20;99.90;;;8.29;nan;100378.28;5012842;28;20695;-67
2023/04/21 06:43:32;;;;;;;17.13;9.20;;;8.30;99.90;;;8.35;nan;100372.69;5013901;28;20645;-68
2023/04/21 06:45:59;;;;;;;18.10;9.10;;;8.40;99.90;;;8.40;nan;100376.66;5025667;28;20632;-66
2023/04/21 06:48:26;;;;;;;21.00;10.50;;;8.40;99.90;;;8.42;nan;100373.94;5029109;28;20666;-67
2023/04/21 06:50:53;;;;;;;7.37;4.97;;;8.40;99.90;;;8.49;nan;100376.06;5031956;28;20650;-67
2023/04/21 06:53:20;;;;;;;11.00;6.00;;;8.50;99.90;;;8.64;nan;100370.75;5015497;28;21094;-67
2023/04/21 06:55:48;;;;;;;7.27;4.83;;;8.60;99.90;;;8.76;nan;100378.53;5012472;28;20695;-66
2023/04/21 06:58:15;;;;;;;8.77;5.73;;;8.70;99.90;;;8.85;nan;100382.28;5011154;28;20667;-66
2023/04/21 07:00:42;;;;;;;7.47;5.20;;;8.80;99.90;;;8.92;nan;100378.31;5018033;28;20628;-65
2023/04/21 07:03:09;;;;;;;6.57;4.13;;;8.90;99.90;;;9.05;nan;100373.94;5021698;28;20680;-67
2023/04/21 07:05:36;;;;;;;5.53;4.57;;;9.00;99.90;;;9.13;nan;100369.88;5018810;28;20634;-66
2023/04/21 07:08:03;;;;;;;8.90;4.90;;;9.10;99.90;;;9.33;nan;100369.28;5020077;28;21527;-67
2023/04/21 07:10:30;;;;;;;11.97;6.73;;;9.30;99.90;;;9.59;nan;100369.19;5010217;28;20683;-66
2023/04/21 07:12:57;;;;;;;11.83;6.20;;;9.50;99.90;;;9.73;nan;100366.44;5011974;28;20661;-66
2023/04/21 07:15:24;;;;;;;13.43;7.07;;;9.70;99.90;;;9.81;nan;100364.94;5009116;28;20682;-66
2023/04/21 07:17:51;;;;;;;16.43;9.17;;;9.80;99.90;;;9.80;nan;100359.81;5015936;28;20626;-65
2023/04/21 07:20:18;;;;;;;14.87;9.00;;;9.80;99.90;;;9.71;nan;100368.31;5008208;28;20640;-65
2023/04/21 07:22:45;;;;;;;14.07;8.40;;;9.70;99.90;;;9.66;nan;100358.22;5012868;28;21271;-66
2023/04/21 07:25:12;;;;;;;15.83;9.27;;;9.70;99.90;;;9.61;nan;100362.94;5011668;28;20640;-66
2023/04/21 07:27:39;;;;;;;18.60;9.97;;;9.60;99.90;;;9.57;nan;100358.03;5009232;28;20707;-65
2023/04/21 07:30:07;;;;;;;16.00;8.30;;;9.60;99.90;;;9.65;nan;100360.94;5011901;28;20636;-66
2023/04/21 07:32:36;;;;;;;14.93;8.33;;;9.60;99.90;;;9.69;nan;100367.59;5011257;28;20661;-66
2023/04/21 07:35:05;;;;;;;9.70;6.60;;;9.70;99.90;;;9.77;nan;100371.31;5008595;28;20638;-66
2023/04/21 07:37:32;;;;;;;21.50;11.53;;;9.70;99.90;;;10.02;nan;100368.56;5010868;28;20629;-66
2023/04/21 07:39:59;;;;;;;23.53;12.90;;;10.00;99.90;;;10.21;nan;100352.44;5009456;28;20669;-66
2023/04/21 07:42:26;;;;;;;20.80;10.53;;;10.20;99.90;;;10.37;nan;100357.34;5012330;28;20633;-66
2023/04/21 07:44:54;;;;;;;22.40;11.23;;;10.40;99.90;;;11.00;nan;100346.34;5010830;28;21232;-65
2023/04/21 07:47:21;;;;;;;9.90;5.53;;;10.90;99.90;;;11.60;nan;100351.94;5012473;28;21011;-68
2023/04/21 07:49:48;;;;;;;14.30;8.10;;;11.60;99.90;;;11.92;nan;100365.03;5013819;28;20726;-65
2023/04/21 07:52:15;;;;;;;19.60;10.60;;;12.00;99.90;;;11.92;nan;100362.44;5012121;28;20676;-66
2023/04/21 07:54:42;;;;;;;19.80;11.23;;;12.00;99.90;;;12.08;nan;100366.25;5010585;28;21219;-66
2023/04/21 07:57:10;;;;;;;18.37;10.00;;;12.10;99.90;;;12.38;nan;100371.59;5018068;28;20637;-66
2023/04/21 07:59:37;;;;;;;9.23;5.63;;;12.40;99.90;;;13.01;nan;100369.72;5012867;28;20652;-66
2023/04/21 08:02:04;;;;;;;19.67;10.83;;;13.00;99.90;;;13.45;nan;100365.88;5011729;28;21352;-65
2023/04/21 08:04:31;;;;;;;17.07;10.40;;;13.50;99.90;;;13.87;nan;100364.69;5011454;28;21135;-66
2023/04/21 08:06:58;;;;;;;20.90;11.73;;;13.90;99.90;;;14.63;nan;100358.53;5014832;28;21049;-67
2023/04/21 08:09:26;;;;;;;17.17;9.30;;;14.70;99.90;;;15.78;nan;100348.28;5012380;28;20662;-65
2023/04/21 08:12:10;;;;;;;15.60;8.80;;;15.80;99.90;;;17.47;nan;100340.59;5009154;28;20652;-66
2023/04/21 08:14:39;;;;;;;12.17;8.60;;;17.60;99.90;;;18.39;nan;100341.19;5012578;28;20680;-65
2023/04/21 08:17:06;;;;;;;10.20;6.67;;;18.80;99.90;;;18.33;nan;100344.50;5018747;28;20629;-65
2023/04/21 08:19:33;;;;;;;11.10;7.50;;;18.80;99.90;;;18.06;nan;100347.50;5011739;28;21032;-66
2023/04/21 08:22:00;;;;;;;11.13;7.93;;;18.60;99.90;;;18.13;nan;100344.00;5015404;28;20632;-66
2023/04/21 08:24:27;;;;;;;12.50;8.80;;;18.60;99.90;;;18.17;nan;100340.03;5022168;28;20630;-66
2023/04/21 08:26:54;;;;;;;16.00;9.53;;;18.60;99.90;;;18.70;nan;100338.69;5025261;28;22341;-65
2023/04/21 08:29:22;;;;;;;11.70;8.63;;;19.10;99.90;;;20.19;nan;100331.25;5018452;28;20664;-66
2023/04/21 08:31:49;;;;;;;12.10;9.63;;;20.50;98.10;;;21.57;nan;100327.66;5010040;28;20637;-66
2023/04/21 08:34:18;;;;;;;12.23;8.17;;;22.00;94.70;;;22.83;nan;100343.69;5014212;28;20648;-66
2023/04/21 08:36:48;;;;;;;11.90;8.83;;;24.60;85.50;;;24.16;nan;100347.41;5009686;28;20642;-66
2023/04/21 08:39:15;;;;;;;11.00;8.13;;;24.60;86.10;;;24.98;nan;100340.53;5011411;28;20661;-65
2023/04/21 08:41:42;;;;;;;13.27;9.50;;;25.80;79.00;;;25.58;nan;100328.59;5010782;28;20668;-65
2023/04/21 08:44:12;;;;;;;13.30;10.03;;;26.40;74.20;;;26.32;nan;100330.56;5013645;28;21001;-65
2023/04/21 08:46:39;;;;;;;12.63;10.03;;;27.10;70.50;;;27.06;nan;100327.75;5018174;28;20633;-64
2023/04/21 08:49:09;;;;;;;10.97;9.10;;;28.00;67.50;;;27.49;nan;100323.88;5009426;28;20745;-64
2023/04/21 08:51:36;;;;;;;13.60;10.90;;;28.30;65.20;;;28.43;nan;100329.22;5010709;28;20633;-66
2023/04/21 08:54:03;;;;;;;11.10;9.43;;;29.20;63.30;;;29.23;nan;100331.25;5011533;28;20718;-65
2023/04/21 08:56:30;;;;;;;9.17;8.23;;;30.10;61.30;;;30.00;nan;100327.88;5012506;28;20645;-65
2023/04/21 08:58:56;;;;;;;9.70;8.70;;;30.80;59.50;;;31.15;nan;100323.38;5010684;28;20652;-65
2023/04/21 09:01:23;;;;;;;11.17;10.00;;;31.90;57.50;;;32.08;nan;100333.78;5015475;28;20643;-65
2023/04/21 09:03:50;;;;;;;9.93;8.93;;;32.90;55.40;;;32.92;nan;100330.28;5030427;28;20632;-65
2023/04/21 09:06:18;;;;;;;12.03;10.83;;;33.70;53.90;;;33.04;nan;100329.00;5012832;28;20637;-65
2023/04/21 09:08:55;;;;;;;11.90;10.70;;;34.10;51.50;;;33.38;nan;100335.59;5005262;28;21214;-64
2023/04/21 09:11:22;;;;;;;12.27;11.07;;;34.20;51.00;;;33.62;nan;100327.84;5007712;28;21262;-66
2023/04/21 09:13:49;;;;;;;11.70;10.50;;;34.50;50.00;;;33.93;nan;100321.34;5008351;28;20676;-64
2023/04/21 09:16:21;;;;;;;10.93;9.40;;;34.80;49.00;;;33.81;nan;100322.72;5013522;28;20691;-65
2023/04/21 09:18:50;;;;;;;12.40;11.10;;;34.80;48.90;;;33.78;nan;100307.81;5009449;28;20649;-65
2023/04/21 09:21:18;;;;;;;15.10;10.00;;;34.80;48.40;;;33.83;nan;100305.13;5000440;28;20641;-65
2023/04/21 09:23:45;;;;;;;12.10;11.00;;;34.90;48.60;;;34.02;nan;100300.00;5005219;28;20644;-65
2023/04/21 09:26:14;;;;;;;11.87;10.67;;;35.10;48.30;;;33.53;nan;100303.22;5005649;28;20632;-65
2023/04/21 09:28:50;;;;;;;13.13;11.83;;;34.80;48.50;;;33.32;nan;100295.28;5008975;28;22735;-66
2023/04/21 09:31:29;;;;;;;13.37;12.03;;;34.50;49.20;;;33.07;nan;100293.34;5010880;28;21009;-65
2023/04/21 09:33:57;;;;;;;13.77;11.60;;;34.40;47.70;;;33.48;nan;100289.63;5025129;28;20702;-65
2023/04/21 09:36:29;;;;;;;12.80;11.50;;;34.40;47.80;;;33.59;nan;100283.19;5027712;28;20690;-65
2023/04/21 09:38:58;;;;;;;15.87;12.47;;;34.60;47.00;;;33.77;nan;100281.84;5004875;28;20680;-65
2023/04/21 09:41:30;;;;;;;12.50;11.20;;;34.80;46.80;;;33.92;nan;100283.75;5012702;28;20637;-65
2023/04/21 09:44:00;;;;;;;11.90;10.70;;;34.90;46.90;;;34.25;nan;100275.06;5013745;28;21022;-64
2023/04/21 09:46:32;;;;;;;16.30;14.60;;;35.30;45.80;;;34.20;nan;100280.50;5026266;28;20644;-65
2023/04/21 09:49:03;;;;;;;16.43;13.10;;;35.30;45.40;;;34.38;nan;100275.31;5007056;28;20714;-64
2023/04/21 09:51:31;;;;;;;15.63;13.57;;;35.30;46.20;;;34.44;nan;100272.59;5013335;28;20649;-65
2023/04/21 09:54:20;;;;;;;13.37;11.97;;;35.40;46.10;;;33.88;nan;100263.72;4997006;28;21314;-65
2023/04/21 09:56:56;;;;;;;12.10;10.37;;;35.00;46.10;;;33.73;nan;100266.44;5027860;28;20632;-63
2023/04/21 09:59:36;;;;;;;14.03;11.40;;;34.70;45.90;;;33.59;nan;100276.97;5031644;28;20663;-65
2023/04/21 10:02:08;;;;;;;12.43;9.70;;;34.70;45.70;;;33.50;nan;100265.09;5024076;28;20624;-65
2023/04/21 10:04:36;;;;;;;12.43;11.13;;;34.60;45.40;;;32.93;nan;100262.44;5019661;28;20629;-65
2023/04/21 10:07:05;;;;;;;12.93;10.83;;;34.20;45.50;;;32.60;nan;100260.97;5006144;28;20636;-65
2023/04/21 10:09:42;;;;;;;12.50;9.80;;;33.60;46.10;;;32.51;nan;100253.63;5001622;28;20672;-65
2023/04/21 10:12:10;;;;;;;15.03;11.37;;;33.30;46.50;;;32.27;nan;100247.78;5008180;28;20774;-65
2023/04/21 10:14:37;;;;;;;13.87;10.10;;;32.90;47.30;;;31.96;nan;100252.19;5018187;28;20704;-64
2023/04/21 10:17:07;;;;;;;11.27;8.30;;;32.60;47.10;;;30.46;nan;100235.19;5012085;28;20597;-65
2023/04/21 10:19:39;;;;;;;12.40;8.60;;;31.30;47.70;;;29.96;nan;100235.28;5013060;28;20661;-65
2023/04/21 10:22:10;;;;;;;10.10;9.00;;;30.20;49.10;;;28.80;nan;100238.53;5013146;28;21196;-65
2023/04/21 10:24:41;;;;;;;12.50;7.83;;;29.10;51.20;;;28.00;nan;100228.69;5013700;28;20629;-65
2023/04/21 10:27:11;;;;;;;7.67;6.47;;;28.00;52.00;;;26.96;nan;100237.22;5028470;28;20629;-65
2023/04/21 10:29:38;;;;;;;9.57;7.17;;;26.90;52.90;;;25.89;nan;100219.03;5013609;28;20669;-67
2023/04/21 10:32:40;;;;;;;10.03;6.83;;;25.90;54.20;;;24.03;nan;100219.44;5032180;28;20628;-65
2023/04/21 10:35:13;;;;;;;10.13;6.40;;;24.30;56.50;;;22.73;nan;100216.38;5016644;28;20682;-64